AXM6072 WBGR-WBKK
Flight info
| Callsign | AXM6072 |
|---|---|
| Flight time | 0h 31m |
| Altitude | 19000 |
| Route | GODOM1A GODOM DCT BRU DCT DULIM DULIM2B |
| Aircraft | A20N/M-SDE2E3FGHIRWXY/LB1 |
Departure
| Time | 2026-05-08 15:04 |
|---|---|
| Airport | Miri Airport (WBGR) |
Arrival
| Time | 2026-05-08 15:35 |
|---|---|
| Airport | Kota Kinabalu International Airport (WBKK) |
| Time | Latitude | Longitude | Altitude | Speed | Heading |
|---|---|---|---|---|---|
| 2026-05-08 15:02 | 4.31180 | 113.98149 | 62 ft | 7 kts | 111° |
| 2026-05-08 15:03 | 4.31178 | 113.98197 | 66 ft | 9 kts | 68° |
| 2026-05-08 15:03 | 4.31227 | 113.98236 | 66 ft | 11 kts | 25° |
| 2026-05-08 15:03 | 4.31393 | 113.98314 | 66 ft | 59 kts | 24° |
| 2026-05-08 15:03 | 4.31985 | 113.98590 | 66 ft | 126 kts | 25° |
| 2026-05-08 15:04 | 4.32767 | 113.98950 | 280 ft | 150 kts | 25° |
| 2026-05-08 15:04 | 4.33517 | 113.99291 | 960 ft | 145 kts | 25° |
| 2026-05-08 15:04 | 4.34284 | 113.99644 | 1522 ft | 151 kts | 25° |
| 2026-05-08 15:04 | 4.35219 | 114.00163 | 2119 ft | 160 kts | 44° |
| 2026-05-08 15:05 | 4.35768 | 114.01033 | 2504 ft | 174 kts | 68° |
| 2026-05-08 15:05 | 4.36222 | 114.02129 | 2950 ft | 194 kts | 67° |
| 2026-05-08 15:05 | 4.36717 | 114.03310 | 3362 ft | 215 kts | 67° |
| 2026-05-08 15:05 | 4.37279 | 114.04637 | 3872 ft | 235 kts | 67° |
| 2026-05-08 15:06 | 4.37897 | 114.06086 | 4396 ft | 255 kts | 67° |
| 2026-05-08 15:06 | 4.38592 | 114.07711 | 5005 ft | 270 kts | 66° |
| 2026-05-08 15:06 | 4.39337 | 114.09448 | 5932 ft | 273 kts | 66° |
| 2026-05-08 15:06 | 4.40032 | 114.11068 | 6758 ft | 276 kts | 66° |
| 2026-05-08 15:07 | 4.40796 | 114.12848 | 7638 ft | 279 kts | 66° |
| 2026-05-08 15:07 | 4.41569 | 114.14649 | 8495 ft | 283 kts | 66° |
| 2026-05-08 15:07 | 4.42349 | 114.16469 | 9356 ft | 286 kts | 66° |
| 2026-05-08 15:07 | 4.43206 | 114.18283 | 10177 ft | 290 kts | 60° |
| 2026-05-08 15:08 | 4.44302 | 114.20044 | 10577 ft | 309 kts | 57° |
| 2026-05-08 15:08 | 4.45086 | 114.21275 | 10731 ft | 325 kts | 57° |
| 2026-05-08 15:08 | 4.46767 | 114.23921 | 11363 ft | 341 kts | 57° |
| 2026-05-08 15:08 | 4.48045 | 114.25941 | 12150 ft | 344 kts | 58° |
| 2026-05-08 15:09 | 4.49330 | 114.27975 | 12907 ft | 347 kts | 58° |
| 2026-05-08 15:09 | 4.50625 | 114.30030 | 13663 ft | 350 kts | 58° |
| 2026-05-08 15:09 | 4.51933 | 114.32104 | 14324 ft | 353 kts | 58° |
| 2026-05-08 15:09 | 4.53242 | 114.34181 | 14969 ft | 357 kts | 58° |
| 2026-05-08 15:10 | 4.54472 | 114.36130 | 15561 ft | 360 kts | 58° |
| 2026-05-08 15:10 | 4.55422 | 114.37634 | 16015 ft | 362 kts | 58° |
| 2026-05-08 15:10 | 4.56553 | 114.39424 | 16542 ft | 364 kts | 58° |
| 2026-05-08 15:10 | 4.57199 | 114.40450 | 16833 ft | 366 kts | 58° |
| 2026-05-08 15:11 | 4.58612 | 114.42690 | 17458 ft | 369 kts | 58° |
| 2026-05-08 15:11 | 4.59990 | 114.44876 | 18083 ft | 372 kts | 58° |
| 2026-05-08 15:11 | 4.61372 | 114.47072 | 18589 ft | 375 kts | 58° |
| 2026-05-08 15:11 | 4.62775 | 114.49299 | 18479 ft | 379 kts | 58° |
| 2026-05-08 15:12 | 4.64079 | 114.51370 | 18192 ft | 373 kts | 58° |
| 2026-05-08 15:12 | 4.65440 | 114.53532 | 18191 ft | 366 kts | 58° |
| 2026-05-08 15:12 | 4.66818 | 114.55720 | 18197 ft | 373 kts | 58° |
| 2026-05-08 15:12 | 4.68202 | 114.57918 | 18195 ft | 373 kts | 58° |
| 2026-05-08 15:13 | 4.69449 | 114.59899 | 18191 ft | 371 kts | 58° |
| 2026-05-08 15:13 | 4.70683 | 114.61860 | 18334 ft | 371 kts | 58° |
| 2026-05-08 15:13 | 4.71963 | 114.63894 | 18691 ft | 375 kts | 58° |
| 2026-05-08 15:13 | 4.73223 | 114.65897 | 18944 ft | 379 kts | 58° |
| 2026-05-08 15:14 | 4.74181 | 114.67418 | 18896 ft | 378 kts | 58° |
| 2026-05-08 15:14 | 4.75830 | 114.70039 | 18696 ft | 376 kts | 58° |
| 2026-05-08 15:14 | 4.77224 | 114.72253 | 18471 ft | 374 kts | 58° |
| 2026-05-08 15:14 | 4.78609 | 114.74455 | 18290 ft | 375 kts | 58° |
| 2026-05-08 15:15 | 4.80009 | 114.76680 | 18486 ft | 378 kts | 58° |
| 2026-05-08 15:15 | 4.81412 | 114.78910 | 18756 ft | 378 kts | 58° |
| 2026-05-08 15:15 | 4.82814 | 114.81140 | 18863 ft | 378 kts | 58° |
| 2026-05-08 15:15 | 4.84218 | 114.83372 | 18884 ft | 378 kts | 58° |
| 2026-05-08 15:16 | 4.85621 | 114.85603 | 18886 ft | 378 kts | 58° |
| 2026-05-08 15:16 | 4.87030 | 114.87819 | 18886 ft | 378 kts | 56° |
| 2026-05-08 15:16 | 4.88651 | 114.89903 | 18884 ft | 378 kts | 49° |
| 2026-05-08 15:16 | 4.90403 | 114.91863 | 18886 ft | 378 kts | 49° |
| 2026-05-08 15:17 | 4.92155 | 114.93836 | 18882 ft | 378 kts | 49° |
| 2026-05-08 15:17 | 4.93899 | 114.95808 | 18882 ft | 378 kts | 49° |
| 2026-05-08 15:17 | 4.95645 | 114.97784 | 18879 ft | 378 kts | 49° |
| 2026-05-08 15:17 | 4.97386 | 114.99753 | 18881 ft | 378 kts | 49° |
| 2026-05-08 15:18 | 4.99130 | 115.01726 | 18882 ft | 377 kts | 49° |
| 2026-05-08 15:18 | 5.00872 | 115.03697 | 18883 ft | 378 kts | 49° |
| 2026-05-08 15:18 | 5.02606 | 115.05658 | 18888 ft | 378 kts | 49° |
| 2026-05-08 15:18 | 5.03758 | 115.06961 | 18885 ft | 378 kts | 49° |
| 2026-05-08 15:19 | 5.05502 | 115.08934 | 18886 ft | 378 kts | 49° |
| 2026-05-08 15:19 | 5.07835 | 115.11573 | 18881 ft | 378 kts | 49° |
| 2026-05-08 15:19 | 5.09579 | 115.13546 | 18882 ft | 378 kts | 49° |
| 2026-05-08 15:19 | 5.11319 | 115.15515 | 18880 ft | 378 kts | 49° |
| 2026-05-08 15:20 | 5.12474 | 115.16822 | 18813 ft | 378 kts | 49° |
| 2026-05-08 15:20 | 5.14804 | 115.19458 | 18513 ft | 375 kts | 49° |
| 2026-05-08 15:20 | 5.15945 | 115.20749 | 18376 ft | 373 kts | 49° |
| 2026-05-08 15:20 | 5.17651 | 115.22680 | 18156 ft | 371 kts | 49° |
| 2026-05-08 15:21 | 5.19370 | 115.24626 | 17901 ft | 370 kts | 49° |
| 2026-05-08 15:21 | 5.21079 | 115.26561 | 17648 ft | 369 kts | 49° |
| 2026-05-08 15:21 | 5.22779 | 115.28487 | 17399 ft | 368 kts | 49° |
| 2026-05-08 15:21 | 5.24474 | 115.30406 | 17143 ft | 367 kts | 49° |
| 2026-05-08 15:22 | 5.26164 | 115.32319 | 16893 ft | 366 kts | 50° |
| 2026-05-08 15:22 | 5.27846 | 115.34225 | 16660 ft | 365 kts | 50° |
| 2026-05-08 15:22 | 5.29463 | 115.36056 | 16418 ft | 363 kts | 50° |
| 2026-05-08 15:22 | 5.31136 | 115.37951 | 16176 ft | 362 kts | 50° |
| 2026-05-08 15:23 | 5.32826 | 115.39866 | 15812 ft | 363 kts | 50° |
| 2026-05-08 15:23 | 5.34507 | 115.41770 | 15248 ft | 365 kts | 50° |
| 2026-05-08 15:23 | 5.36186 | 115.43673 | 14668 ft | 364 kts | 50° |
| 2026-05-08 15:23 | 5.37854 | 115.45563 | 14129 ft | 362 kts | 50° |
| 2026-05-08 15:24 | 5.39521 | 115.47451 | 13565 ft | 360 kts | 50° |
| 2026-05-08 15:24 | 5.41175 | 115.49326 | 13014 ft | 357 kts | 50° |
| 2026-05-08 15:24 | 5.42813 | 115.51183 | 12473 ft | 354 kts | 50° |
| 2026-05-08 15:24 | 5.44362 | 115.53084 | 11941 ft | 350 kts | 56° |
| 2026-05-08 15:25 | 5.45615 | 115.55165 | 11406 ft | 347 kts | 64° |
| 2026-05-08 15:25 | 5.46571 | 115.57343 | 10858 ft | 345 kts | 68° |
| 2026-05-08 15:25 | 5.47499 | 115.59557 | 10364 ft | 343 kts | 68° |
| 2026-05-08 15:25 | 5.48417 | 115.61720 | 10192 ft | 329 kts | 67° |
| 2026-05-08 15:26 | 5.49298 | 115.63787 | 10072 ft | 315 kts | 67° |
| 2026-05-08 15:26 | 5.50142 | 115.65771 | 9968 ft | 302 kts | 67° |
| 2026-05-08 15:26 | 5.50952 | 115.67673 | 9752 ft | 293 kts | 67° |
| 2026-05-08 15:26 | 5.51748 | 115.69548 | 9386 ft | 290 kts | 67° |
| 2026-05-08 15:27 | 5.52535 | 115.71401 | 8999 ft | 288 kts | 67° |
| 2026-05-08 15:27 | 5.53319 | 115.73249 | 8602 ft | 287 kts | 67° |
| 2026-05-08 15:27 | 5.54098 | 115.75084 | 8195 ft | 285 kts | 67° |
| 2026-05-08 15:27 | 5.54998 | 115.76848 | 7815 ft | 283 kts | 58° |
| 2026-05-08 15:28 | 5.56051 | 115.78512 | 7435 ft | 282 kts | 58° |
| 2026-05-08 15:28 | 5.57091 | 115.80171 | 7071 ft | 280 kts | 58° |
| 2026-05-08 15:28 | 5.58120 | 115.81819 | 6696 ft | 278 kts | 58° |
| 2026-05-08 15:28 | 5.59145 | 115.83464 | 6337 ft | 277 kts | 58° |
| 2026-05-08 15:29 | 5.60165 | 115.85102 | 5955 ft | 276 kts | 58° |
| 2026-05-08 15:29 | 5.61082 | 115.86573 | 5624 ft | 274 kts | 58° |
| 2026-05-08 15:29 | 5.62110 | 115.88223 | 5254 ft | 273 kts | 58° |
| 2026-05-08 15:29 | 5.63020 | 115.89683 | 4929 ft | 273 kts | 58° |
| 2026-05-08 15:30 | 5.64025 | 115.91295 | 4560 ft | 272 kts | 58° |
| 2026-05-08 15:30 | 5.65184 | 115.92776 | 4223 ft | 269 kts | 39° |
| 2026-05-08 15:30 | 5.66779 | 115.93714 | 4116 ft | 271 kts | 25° |
| 2026-05-08 15:30 | 5.68538 | 115.94425 | 3998 ft | 271 kts | 22° |
| 2026-05-08 15:31 | 5.70265 | 115.95150 | 3882 ft | 269 kts | 24° |
| 2026-05-08 15:31 | 5.71992 | 115.95882 | 3768 ft | 270 kts | 23° |
| 2026-05-08 15:31 | 5.73712 | 115.96613 | 3592 ft | 266 kts | 23° |
| 2026-05-08 15:31 | 5.75404 | 115.97331 | 3315 ft | 262 kts | 23° |
| 2026-05-08 15:32 | 5.76971 | 115.97997 | 3027 ft | 260 kts | 23° |
| 2026-05-08 15:32 | 5.78618 | 115.98696 | 2707 ft | 259 kts | 23° |
| 2026-05-08 15:32 | 5.80268 | 115.99397 | 2375 ft | 257 kts | 23° |
| 2026-05-08 15:32 | 5.81901 | 116.00090 | 2039 ft | 250 kts | 23° |
| 2026-05-08 15:33 | 5.83471 | 116.00757 | 1760 ft | 241 kts | 23° |
| 2026-05-08 15:33 | 5.85001 | 116.01408 | 1461 ft | 232 kts | 23° |
| 2026-05-08 15:33 | 5.86415 | 116.02008 | 1189 ft | 215 kts | 23° |
| 2026-05-08 15:33 | 5.87746 | 116.02574 | 923 ft | 201 kts | 22° |
| 2026-05-08 15:34 | 5.88895 | 116.03062 | 719 ft | 186 kts | 22° |
| 2026-05-08 15:34 | 5.90118 | 116.03582 | 429 ft | 190 kts | 23° |
| 2026-05-08 15:34 | 5.91335 | 116.04099 | 182 ft | 189 kts | 23° |
| 2026-05-08 15:34 | 5.92341 | 116.04534 | 30 ft | 170 kts | 23° |
| 2026-05-08 15:35 | 5.93292 | 116.04936 | 28 ft | 120 kts | 23° |
| 2026-05-08 15:35 | 5.93641 | 116.05086 | 28 ft | 29 kts | 26° |
| 2026-05-08 15:35 | 5.93698 | 116.05194 | 28 ft | 16 kts | 112° |
| 2026-05-08 15:35 | 5.93614 | 116.05249 | 28 ft | 13 kts | 179° |
| 2026-05-08 15:36 | 5.93521 | 116.05216 | 28 ft | 16 kts | 202° |
| 2026-05-08 15:36 | 5.93413 | 116.05172 | 28 ft | 18 kts | 202° |
| 2026-05-08 15:36 | 5.93295 | 116.05125 | 28 ft | 17 kts | 203° |
| 2026-05-08 15:36 | 5.93190 | 116.05081 | 28 ft | 15 kts | 202° |
| 2026-05-08 15:37 | 5.93099 | 116.05040 | 28 ft | 13 kts | 203° |
| 2026-05-08 15:37 | 5.93019 | 116.05006 | 28 ft | 12 kts | 202° |
| 2026-05-08 15:37 | 5.92948 | 116.04977 | 28 ft | 11 kts | 201° |
| 2026-05-08 15:37 | 5.92865 | 116.04989 | 28 ft | 15 kts | 135° |
| 2026-05-08 15:38 | 5.92793 | 116.05040 | 28 ft | 8 kts | 193° |
| 2026-05-08 15:38 | 5.92727 | 116.05011 | 28 ft | 11 kts | 206° |
| 2026-05-08 15:38 | 5.92678 | 116.05026 | 28 ft | 5 kts | 89° |
| 2026-05-08 15:38 | 5.92677 | 116.05035 | 28 ft | 2 kts | 97° |
| 2026-05-08 15:39 | 5.92674 | 116.05044 | 28 ft | 1 kts | 107° |
| 2026-05-08 15:39 | 5.92673 | 116.05047 | 28 ft | 0 kts | 109° |
| 2026-05-08 15:39 | 5.92672 | 116.05050 | 28 ft | 2 kts | 109° |
| 2026-05-08 15:39 | 5.92667 | 116.05063 | 28 ft | 0 kts | 112° |